Time;durP1;ratioP1;P1;durP2;ratioP2;P2;SDS_P1;SDS_P2;PMS_P1;PMS_P2;Temp;Humidity;BMP_temperature;BMP_pressure;BME280_temperature;BME280_humidity;BME280_pressure;Samples;Min_cycle;Max_cycle;Signal;HPM_P1;HPM_P2
2023/03/23 00:02:37;;;;;;;3.75;1.77;;;;;;;;;;10539456;27;20036;-77
2023/03/23 00:07:44;;;;;;;3.83;2.00;;;;;;;;;;10530286;27;20177;-77
2023/03/23 00:12:49;;;;;;;4.78;2.33;;;;;;;;;;10562119;27;20043;-77
2023/03/23 00:17:52;;;;;;;5.32;2.92;;;;;;;;;;10564186;27;20035;-78
2023/03/23 00:22:59;;;;;;;1.10;0.98;;;;;;;;;;10546390;27;20030;-78
2023/03/23 00:28:02;;;;;;;3.65;1.38;;;;;;;;;;10525906;27;20382;-78
2023/03/23 00:33:05;;;;;;;2.30;1.80;;;;;;;;;;10528021;27;20036;-78
2023/03/23 00:38:09;;;;;;;3.55;1.77;;;;;;;;;;10541712;27;20068;-79
2023/03/23 00:43:13;;;;;;;3.67;1.88;;;;;;;;;;10544195;27;20064;-78
2023/03/23 00:48:15;;;;;;;1.67;0.88;;;;;;;;;;10557844;27;20055;-78
2023/03/23 00:53:19;;;;;;;2.75;1.83;;;;;;;;;;10521486;27;20035;-78
2023/03/23 00:58:21;;;;;;;1.90;0.85;;;;;;;;;;10544704;28;20096;-77
2023/03/23 01:03:25;;;;;;;2.58;1.60;;;;;;;;;;10538149;27;20365;-76
2023/03/23 01:08:31;;;;;;;7.03;2.33;;;;;;;;;;10543638;27;20071;-77
2023/03/23 01:13:34;;;;;;;9.07;2.20;;;;;;;;;;10535783;28;20504;-76
2023/03/23 01:18:36;;;;;;;4.80;2.55;;;;;;;;;;10515962;27;20236;-76
2023/03/23 01:23:39;;;;;;;5.22;2.05;;;;;;;;;;10540320;28;20473;-76
2023/03/23 01:28:42;;;;;;;5.10;1.90;;;;;;;;;;10556058;27;20050;-76
2023/03/23 01:33:44;;;;;;;2.97;1.67;;;;;;;;;;10542223;28;20031;-77
2023/03/23 01:38:48;;;;;;;5.65;1.95;;;;;;;;;;10559423;28;20055;-76
2023/03/23 01:43:50;;;;;;;;;;;;;;;;;;10544224;28;20107;-76
2023/03/23 01:48:54;;;;;;;3.53;1.90;;;;;;;;;;10575298;28;20103;-78
2023/03/23 01:53:59;;;;;;;3.25;1.88;;;;;;;;;;10557160;28;21003;-77
2023/03/23 01:59:01;;;;;;;3.35;1.75;;;;;;;;;;10533560;28;20125;-74
2023/03/23 02:04:03;;;;;;;2.97;1.70;;;;;;;;;;10562016;28;20414;-75
2023/03/23 02:09:07;;;;;;;4.15;1.73;;;;;;;;;;10533206;28;20035;-76
2023/03/23 02:14:09;;;;;;;3.60;1.58;;;;;;;;;;10543725;28;20042;-76
2023/03/23 02:19:32;;;;;;;3.30;1.70;;;;;;;;;;10538354;28;20054;-77
2023/03/23 02:24:53;;;;;;;5.15;1.80;;;;;;;;;;10542581;28;20074;-75
2023/03/23 02:30:04;;;;;;;8.18;1.85;;;;;;;;;;10540096;28;20040;-76
2023/03/23 02:35:10;;;;;;;4.30;1.95;;;;;;;;;;10541888;27;20207;-76
2023/03/23 02:40:16;;;;;;;3.22;1.67;;;;;;;;;;10542726;27;20078;-76
2023/03/23 02:45:19;;;;;;;7.03;1.75;;;;;;;;;;10528825;27;20786;-74
2023/03/23 02:50:26;;;;;;;1.70;1.10;;;;;;;;;;10523937;27;20126;-77
2023/03/23 02:55:28;;;;;;;4.15;1.83;;;;;;;;;;10561143;27;20127;-76
2023/03/23 03:00:30;;;;;;;4.25;1.55;;;;;;;;;;10541617;27;20036;-77
2023/03/23 03:05:40;;;;;;;3.67;1.80;;;;;;;;;;10543899;27;20404;-75
2023/03/23 03:10:47;;;;;;;4.95;1.75;;;;;;;;;;10529965;27;20141;-76
2023/03/23 03:15:53;;;;;;;3.50;1.70;;;;;;;;;;10563824;27;20056;-76
2023/03/23 03:21:05;;;;;;;4.03;1.73;;;;;;;;;;10522170;27;20051;-75
2023/03/23 03:26:09;;;;;;;1.77;0.95;;;;;;;;;;10543905;27;20036;-77
2023/03/23 03:31:11;;;;;;;3.17;1.73;;;;;;;;;;10543164;27;20052;-76
2023/03/23 03:36:17;;;;;;;3.78;1.70;;;;;;;;;;10553210;27;20319;-76
2023/03/23 03:41:20;;;;;;;2.90;1.17;;;;;;;;;;10564405;27;20040;-76
2023/03/23 03:46:32;;;;;;;0.95;0.70;;;;;;;;;;10545795;27;20035;-76
2023/03/23 03:51:36;;;;;;;2.38;1.45;;;;;;;;;;10523064;27;20048;-77
2023/03/23 03:56:40;;;;;;;3.70;2.30;;;;;;;;;;10527692;27;20110;-76
2023/03/23 04:01:41;;;;;;;2.78;1.63;;;;;;;;;;10522557;27;20047;-74
2023/03/23 04:06:45;;;;;;;2.65;1.50;;;;;;;;;;10544488;27;20551;-75
2023/03/23 04:11:47;;;;;;;5.43;2.08;;;;;;;;;;10536766;27;20071;-74
2023/03/23 04:16:59;;;;;;;3.72;1.90;;;;;;;;;;10543458;27;20090;-76
2023/03/23 04:22:03;;;;;;;1.35;0.80;;;;;;;;;;10525831;27;20055;-77
2023/03/23 04:27:05;;;;;;;1.15;0.77;;;;;;;;;;10532634;27;20528;-75
2023/03/23 04:32:08;;;;;;;3.17;1.55;;;;;;;;;;10556936;27;20134;-76
2023/03/23 04:37:13;;;;;;;6.13;2.25;;;;;;;;;;10552529;27;20032;-75
2023/03/23 04:42:15;;;;;;;4.63;2.20;;;;;;;;;;10556460;27;20485;-75
2023/03/23 04:47:17;;;;;;;3.60;1.33;;;;;;;;;;10542868;28;20094;-75
2023/03/23 04:52:21;;;;;;;6.03;1.95;;;;;;;;;;10524093;27;20044;-76
2023/03/23 04:57:25;;;;;;;3.65;1.52;;;;;;;;;;10557799;27;20040;-76
2023/03/23 05:02:30;;;;;;;3.90;1.80;;;;;;;;;;10546698;27;20048;-74
2023/03/23 05:07:36;;;;;;;4.72;1.83;;;;;;;;;;10538489;27;20480;-75
2023/03/23 05:12:38;;;;;;;2.08;1.38;;;;;;;;;;10529169;27;20473;-76
2023/03/23 05:17:43;;;;;;;5.25;2.03;;;;;;;;;;10537958;27;20024;-77
2023/03/23 05:22:49;;;;;;;5.35;1.90;;;;;;;;;;10533660;28;20047;-76
2023/03/23 05:27:52;;;;;;;4.22;1.75;;;;;;;;;;10555476;27;20032;-76
2023/03/23 05:32:55;;;;;;;2.40;1.13;;;;;;;;;;10526389;27;20055;-76
2023/03/23 05:37:59;;;;;;;3.35;1.02;;;;;;;;;;10553408;28;20035;-77
2023/03/23 05:43:01;;;;;;;1.30;0.82;;;;;;;;;;10522061;28;20340;-76
2023/03/23 05:48:03;;;;;;;4.32;1.20;;;;;;;;;;10553077;28;20082;-76
2023/03/23 05:53:06;;;;;;;2.15;0.95;;;;;;;;;;10521935;28;20048;-77
2023/03/23 05:58:09;;;;;;;2.10;1.10;;;;;;;;;;10539970;28;20027;-77
2023/03/23 06:03:11;;;;;;;4.87;1.43;;;;;;;;;;10542338;28;20130;-76
2023/03/23 06:08:15;;;;;;;3.15;0.90;;;;;;;;;;10521626;28;20309;-76
2023/03/23 06:13:17;;;;;;;3.58;1.23;;;;;;;;;;10543035;27;20044;-75
2023/03/23 06:18:20;;;;;;;3.58;1.40;;;;;;;;;;10544375;27;20071;-76
2023/03/23 06:23:26;;;;;;;7.80;1.98;;;;;;;;;;10551611;27;20051;-76
2023/03/23 06:28:29;;;;;;;3.80;1.63;;;;;;;;;;10550504;27;20046;-77
2023/03/23 06:33:31;;;;;;;4.93;2.60;;;;;;;;;;10547767;27;20039;-78
2023/03/23 06:38:35;;;;;;;4.60;2.13;;;;;;;;;;10553802;27;20035;-75
2023/03/23 06:43:39;;;;;;;3.95;2.13;;;;;;;;;;10562971;27;20250;-78
2023/03/23 06:48:42;;;;;;;6.25;2.30;;;;;;;;;;10547688;27;20036;-77
2023/03/23 06:53:46;;;;;;;4.60;1.75;;;;;;;;;;10544360;27;20044;-77
2023/03/23 06:58:49;;;;;;;3.05;1.67;;;;;;;;;;10530082;27;20110;-76
2023/03/23 07:03:51;;;;;;;5.63;2.10;;;;;;;;;;10540755;28;20039;-77
2023/03/23 07:08:55;;;;;;;4.72;1.40;;;;;;;;;;10511277;27;20044;-77
2023/03/23 07:13:57;;;;;;;2.90;1.60;;;;;;;;;;10533550;27;20031;-77
2023/03/23 07:19:00;;;;;;;5.20;1.77;;;;;;;;;;10522968;27;20036;-77
2023/03/23 07:24:11;;;;;;;2.50;1.45;;;;;;;;;;10547575;27;20069;-77
2023/03/23 07:29:13;;;;;;;3.60;1.40;;;;;;;;;;10568611;27;20877;-77
2023/03/23 07:34:15;;;;;;;1.75;1.45;;;;;;;;;;10557859;27;20070;-77
2023/03/23 07:39:19;;;;;;;3.88;1.77;;;;;;;;;;10532810;27;20625;-77
2023/03/23 07:44:22;;;;;;;2.47;1.30;;;;;;;;;;10565778;27;20043;-76
2023/03/23 07:49:26;;;;;;;4.97;2.00;;;;;;;;;;10559990;27;20048;-77
2023/03/23 07:54:30;;;;;;;3.28;1.58;;;;;;;;;;10565762;27;20036;-78
2023/03/23 07:59:35;;;;;;;3.75;1.88;;;;;;;;;;10548984;27;20485;-76
2023/03/23 08:04:37;;;;;;;3.88;2.00;;;;;;;;;;10557816;27;20037;-76
2023/03/23 08:09:40;;;;;;;3.95;1.83;;;;;;;;;;10537394;27;20146;-77
2023/03/23 08:14:43;;;;;;;4.13;2.17;;;;;;;;;;10549701;27;20046;-77
2023/03/23 08:19:45;;;;;;;4.43;1.60;;;;;;;;;;10554313;27;20082;-77
2023/03/23 08:24:49;;;;;;;3.63;1.10;;;;;;;;;;10550993;27;20070;-76
2023/03/23 08:29:51;;;;;;;;;;;;;;;;;;10561096;27;20439;-77
2023/03/23 08:35:03;;;;;;;4.32;1.80;;;;;;;;;;10539848;27;19927;-77
2023/03/23 08:40:19;;;;;;;3.03;1.70;;;;;;;;;;10537299;27;20247;-77
2023/03/23 08:45:30;;;;;;;2.40;1.45;;;;;;;;;;10553704;27;20465;-77
2023/03/23 08:50:32;;;;;;;3.00;1.80;;;;;;;;;;10547050;27;22112;-77
2023/03/23 08:55:39;;;;;;;4.10;1.98;;;;;;;;;;10534467;27;20469;-77
2023/03/23 09:00:41;;;;;;;3.92;1.88;;;;;;;;;;10534303;28;20130;-77
2023/03/23 09:05:45;;;;;;;5.60;2.25;;;;;;;;;;10543138;27;20075;-77
2023/03/23 09:10:50;;;;;;;3.47;1.90;;;;;;;;;;10554222;27;20055;-77
2023/03/23 09:15:53;;;;;;;7.88;2.20;;;;;;;;;;10551594;27;20063;-78
2023/03/23 09:20:55;;;;;;;6.15;2.47;;;;;;;;;;10548216;27;20040;-77
2023/03/23 09:26:00;;;;;;;9.07;2.50;;;;;;;;;;10557177;28;20118;-77
2023/03/23 09:31:04;;;;;;;7.55;2.25;;;;;;;;;;10530790;27;20051;-77
2023/03/23 09:36:08;;;;;;;4.13;1.67;;;;;;;;;;10548816;28;20420;-79
2023/03/23 09:41:31;;;;;;;3.33;1.63;;;;;;;;;;10533175;28;20043;-77
2023/03/23 09:46:43;;;;;;;6.35;2.00;;;;;;;;;;10569374;27;20031;-77
2023/03/23 09:51:50;;;;;;;2.40;1.15;;;;;;;;;;10535299;27;20211;-77
2023/03/23 09:56:54;;;;;;;3.25;1.75;;;;;;;;;;10550652;28;20432;-77
2023/03/23 10:01:59;;;;;;;6.13;2.67;;;;;;;;;;10545540;27;20058;-77
2023/03/23 10:07:06;;;;;;;3.75;2.00;;;;;;;;;;10540892;28;20042;-78
2023/03/23 10:12:17;;;;;;;6.03;2.90;;;;;;;;;;10547401;27;20042;-76
2023/03/23 10:17:23;;;;;;;3.97;2.28;;;;;;;;;;10545809;27;20048;-79
2023/03/23 10:22:27;;;;;;;8.20;2.88;;;;;;;;;;10554316;27;20517;-78
2023/03/23 10:27:43;;;;;;;3.70;2.15;;;;;;;;;;10566144;27;20049;-76
2023/03/23 10:32:50;;;;;;;5.47;2.70;;;;;;;;;;10548986;27;20126;-77
2023/03/23 10:38:04;;;;;;;3.50;1.98;;;;;;;;;;10549943;27;20031;-77
2023/03/23 10:43:10;;;;;;;3.70;2.00;;;;;;;;;;10540597;27;20040;-77
2023/03/23 10:48:18;;;;;;;3.28;1.60;;;;;;;;;;10570601;27;20060;-77
2023/03/23 10:53:22;;;;;;;2.55;1.40;;;;;;;;;;10561850;27;20449;-77
2023/03/23 10:58:29;;;;;;;5.72;2.00;;;;;;;;;;10538528;27;20132;-79
2023/03/23 11:03:38;;;;;;;3.90;1.80;;;;;;;;;;10546394;27;20688;-79
2023/03/23 11:08:49;;;;;;;4.88;2.15;;;;;;;;;;10527870;27;20036;-77
2023/03/23 11:13:59;;;;;;;6.63;2.65;;;;;;;;;;10550082;27;20036;-77
2023/03/23 11:19:13;;;;;;;5.63;2.45;;;;;;;;;;10536188;27;20489;-77
2023/03/23 11:24:16;;;;;;;5.78;2.20;;;;;;;;;;10554619;27;20043;-77
2023/03/23 11:29:22;;;;;;;5.93;2.42;;;;;;;;;;10538855;27;20035;-77
2023/03/23 11:34:32;;;;;;;4.65;1.75;;;;;;;;;;10543133;27;20043;-77
2023/03/23 11:39:47;;;;;;;4.65;2.25;;;;;;;;;;10541508;27;20043;-78
2023/03/23 11:45:13;;;;;;;2.75;1.83;;;;;;;;;;10528053;27;20035;-77
2023/03/23 11:50:26;;;;;;;5.22;2.20;;;;;;;;;;10564474;27;20050;-77
2023/03/23 11:55:52;;;;;;;2.40;1.50;;;;;;;;;;10552214;28;20042;-77
2023/03/23 12:00:59;;;;;;;3.00;1.63;;;;;;;;;;10560152;27;20039;-76
2023/03/23 12:06:03;;;;;;;9.68;2.88;;;;;;;;;;10548369;27;20122;-77
2023/03/23 12:11:09;;;;;;;5.32;2.30;;;;;;;;;;10558103;27;20439;-78
2023/03/23 12:16:17;;;;;;;6.80;2.70;;;;;;;;;;10532939;27;20044;-77
2023/03/23 12:21:22;;;;;;;8.05;2.72;;;;;;;;;;10524464;27;20043;-78
2023/03/23 12:26:27;;;;;;;7.70;3.03;;;;;;;;;;10539822;27;20135;-77
2023/03/23 12:31:34;;;;;;;6.60;3.10;;;;;;;;;;10545207;27;20060;-78
2023/03/23 12:36:43;;;;;;;6.45;2.75;;;;;;;;;;10550636;27;20036;-77
2023/03/23 12:41:48;;;;;;;3.92;2.17;;;;;;;;;;10512420;27;20051;-77
2023/03/23 12:47:09;;;;;;;2.72;1.80;;;;;;;;;;10529369;27;20070;-77
2023/03/23 12:52:17;;;;;;;2.50;1.58;;;;;;;;;;10538796;28;20134;-77
2023/03/23 12:57:22;;;;;;;6.95;2.85;;;;;;;;;;10525750;27;20448;-76
2023/03/23 13:02:27;;;;;;;5.30;1.90;;;;;;;;;;10523773;27;20119;-78
2023/03/23 13:07:33;;;;;;;4.13;1.55;;;;;;;;;;10538782;27;20036;-76
2023/03/23 13:12:39;;;;;;;2.53;1.52;;;;;;;;;;10541766;27;20071;-77
2023/03/23 13:17:46;;;;;;;2.42;1.40;;;;;;;;;;10539966;27;20147;-77
2023/03/23 13:22:51;;;;;;;5.50;1.52;;;;;;;;;;10526905;27;20043;-77
2023/03/23 13:28:00;;;;;;;3.05;1.50;;;;;;;;;;10533832;27;20424;-76
2023/03/23 13:33:05;;;;;;;2.40;1.30;;;;;;;;;;10536847;27;20032;-78
2023/03/23 13:38:22;;;;;;;5.90;2.03;;;;;;;;;;10514344;28;20474;-77
2023/03/23 13:43:31;;;;;;;3.50;1.98;;;;;;;;;;10542469;28;20044;-77
2023/03/23 13:48:40;;;;;;;4.22;1.80;;;;;;;;;;10550178;28;20036;-77
2023/03/23 13:53:45;;;;;;;3.20;1.73;;;;;;;;;;10555129;28;20058;-77
2023/03/23 13:58:49;;;;;;;5.65;1.90;;;;;;;;;;10553978;28;20391;-78
2023/03/23 14:03:55;;;;;;;3.33;1.80;;;;;;;;;;10549555;28;20405;-77
2023/03/23 14:09:05;;;;;;;2.25;1.55;;;;;;;;;;10541827;28;20094;-78
2023/03/23 14:14:15;;;;;;;1.67;1.10;;;;;;;;;;10551291;28;20455;-78
2023/03/23 14:19:19;;;;;;;5.40;1.88;;;;;;;;;;10552330;28;20519;-78
2023/03/23 14:24:24;;;;;;;1.75;1.17;;;;;;;;;;10548260;28;20039;-77
2023/03/23 14:29:27;;;;;;;2.25;1.33;;;;;;;;;;10550121;28;20501;-76
2023/03/23 14:34:32;;;;;;;3.63;1.55;;;;;;;;;;10560299;27;20044;-77
2023/03/23 14:39:35;;;;;;;7.88;1.70;;;;;;;;;;10556247;27;20501;-78
2023/03/23 14:44:41;;;;;;;2.03;1.27;;;;;;;;;;10557504;27;20124;-77
2023/03/23 14:49:43;;;;;;;2.75;1.30;;;;;;;;;;10550854;27;20141;-77
2023/03/23 14:54:48;;;;;;;2.30;1.27;;;;;;;;;;10556336;27;20035;-77
2023/03/23 14:59:51;;;;;;;3.63;1.60;;;;;;;;;;10555911;27;20035;-78
2023/03/23 15:04:55;;;;;;;4.30;1.40;;;;;;;;;;10551805;27;20484;-78
2023/03/23 15:10:02;;;;;;;5.35;1.58;;;;;;;;;;10529783;27;20043;-77
2023/03/23 15:15:20;;;;;;;3.80;1.27;;;;;;;;;;10540645;27;20134;-77
2023/03/23 15:20:25;;;;;;;2.38;1.55;;;;;;;;;;10566576;27;20047;-78
2023/03/23 15:25:33;;;;;;;2.00;1.20;;;;;;;;;;10545833;27;20524;-77
2023/03/23 15:30:38;;;;;;;2.20;1.50;;;;;;;;;;10554850;27;20040;-78
2023/03/23 15:35:41;;;;;;;2.80;1.60;;;;;;;;;;10558914;27;20049;-78
2023/03/23 15:40:45;;;;;;;4.20;1.77;;;;;;;;;;10559299;27;20047;-77
2023/03/23 15:45:55;;;;;;;3.88;1.70;;;;;;;;;;10544356;27;20447;-77
2023/03/23 15:50:58;;;;;;;2.75;1.60;;;;;;;;;;10536997;27;20031;-77
2023/03/23 15:56:01;;;;;;;1.63;1.35;;;;;;;;;;10530064;27;20059;-77
2023/03/23 16:01:08;;;;;;;4.07;1.50;;;;;;;;;;10551293;27;20036;-79
2023/03/23 16:06:12;;;;;;;2.63;1.63;;;;;;;;;;10558549;27;20621;-78
2023/03/23 16:11:30;;;;;;;2.85;1.42;;;;;;;;;;10563312;27;20062;-77
2023/03/23 16:16:37;;;;;;;4.20;1.48;;;;;;;;;;10560842;27;20046;-77
2023/03/23 16:21:46;;;;;;;3.53;1.60;;;;;;;;;;10553199;27;20048;-77
2023/03/23 16:26:56;;;;;;;4.40;1.80;;;;;;;;;;10549026;27;20059;-78
2023/03/23 16:32:10;;;;;;;5.07;1.35;;;;;;;;;;10555211;27;20039;-77
2023/03/23 16:37:13;;;;;;;3.13;1.70;;;;;;;;;;10554176;27;20051;-79
2023/03/23 16:42:16;;;;;;;4.57;1.80;;;;;;;;;;10548091;27;20039;-79
2023/03/23 16:47:22;;;;;;;;;;;;;;;;;;10558818;27;20032;-77
2023/03/23 16:52:27;;;;;;;2.75;1.92;;;;;;;;;;10555757;27;19930;-77
2023/03/23 16:57:37;;;;;;;3.85;1.73;;;;;;;;;;10544084;27;20054;-76
2023/03/23 17:02:40;;;;;;;4.63;1.73;;;;;;;;;;10553234;27;20449;-79
2023/03/23 17:07:50;;;;;;;2.88;1.65;;;;;;;;;;10551431;27;20031;-78
2023/03/23 17:12:53;;;;;;;4.88;2.20;;;;;;;;;;10532022;27;20047;-78
2023/03/23 17:18:01;;;;;;;;;;;;;;;;;;10519756;28;20244;-78
2023/03/23 17:23:05;;;;;;;3.30;1.80;;;;;;;;;;10531877;27;19969;-78
2023/03/23 17:28:09;;;;;;;5.90;2.35;;;;;;;;;;10541402;27;20043;-77
2023/03/23 17:33:17;;;;;;;5.03;1.92;;;;;;;;;;10555659;27;20047;-77
2023/03/23 17:38:21;;;;;;;4.57;2.08;;;;;;;;;;10553909;28;20044;-78
2023/03/23 17:43:26;;;;;;;4.07;2.05;;;;;;;;;;10564235;28;20446;-77
2023/03/23 17:48:40;;;;;;;4.35;2.50;;;;;;;;;;10564858;28;20031;-78
2023/03/23 17:53:55;;;;;;;4.28;2.20;;;;;;;;;;10521601;28;20496;-78
2023/03/23 17:58:59;;;;;;;6.22;1.80;;;;;;;;;;10541436;28;20044;-77
2023/03/23 18:04:03;;;;;;;3.50;2.20;;;;;;;;;;10553965;28;20052;-77
2023/03/23 18:09:08;;;;;;;5.82;2.53;;;;;;;;;;10539920;27;20039;-78
2023/03/23 18:14:11;;;;;;;6.60;2.08;;;;;;;;;;10568941;27;20573;-78
2023/03/23 18:19:17;;;;;;;5.50;1.90;;;;;;;;;;10566299;27;20039;-78
2023/03/23 18:24:22;;;;;;;5.25;2.40;;;;;;;;;;10556198;27;20054;-78
2023/03/23 18:29:26;;;;;;;6.85;2.25;;;;;;;;;;10539173;28;20052;-77
2023/03/23 18:34:31;;;;;;;5.18;2.70;;;;;;;;;;10546798;28;20119;-78
2023/03/23 18:39:45;;;;;;;6.93;2.83;;;;;;;;;;10566451;28;20058;-77
2023/03/23 18:44:48;;;;;;;7.32;3.50;;;;;;;;;;10547053;27;20059;-77
2023/03/23 18:49:54;;;;;;;5.80;2.78;;;;;;;;;;10528810;28;20041;-77
2023/03/23 18:55:00;;;;;;;5.72;2.40;;;;;;;;;;10531949;27;20074;-77
2023/03/23 19:00:03;;;;;;;5.10;1.98;;;;;;;;;;10509775;28;20148;-78
2023/03/23 19:05:07;;;;;;;7.25;2.42;;;;;;;;;;10566694;27;20543;-78
2023/03/23 19:10:11;;;;;;;9.68;3.28;;;;;;;;;;10536628;27;20572;-78
2023/03/23 19:15:15;;;;;;;6.40;2.80;;;;;;;;;;10557036;27;20044;-77
2023/03/23 19:20:18;;;;;;;5.13;2.55;;;;;;;;;;10555404;27;20058;-76
2023/03/23 19:25:43;;;;;;;5.68;3.20;;;;;;;;;;10566557;27;20036;-76
2023/03/23 19:30:47;;;;;;;4.95;2.80;;;;;;;;;;10559491;27;20073;-78
2023/03/23 19:35:53;;;;;;;5.70;2.47;;;;;;;;;;10567402;27;20128;-78
2023/03/23 19:41:12;;;;;;;8.55;2.90;;;;;;;;;;10563133;27;20051;-78
2023/03/23 19:46:15;;;;;;;5.55;2.65;;;;;;;;;;10543055;27;20051;-78
2023/03/23 19:51:20;;;;;;;9.52;3.10;;;;;;;;;;10543244;27;20054;-78
2023/03/23 19:56:25;;;;;;;8.50;3.55;;;;;;;;;;10555516;27;20055;-79
2023/03/23 20:01:29;;;;;;;10.15;3.05;;;;;;;;;;10559146;27;20036;-78
2023/03/23 20:06:34;;;;;;;7.10;2.80;;;;;;;;;;10571356;27;20078;-78
2023/03/23 20:11:40;;;;;;;8.10;3.75;;;;;;;;;;10561189;27;20139;-77
2023/03/23 20:16:43;;;;;;;3.00;1.67;;;;;;;;;;10555874;27;20067;-77
2023/03/23 20:21:47;;;;;;;3.05;1.77;;;;;;;;;;10540636;27;20511;-77
2023/03/23 20:26:52;;;;;;;3.25;1.77;;;;;;;;;;10549202;28;20464;-78
2023/03/23 20:31:55;;;;;;;3.83;1.58;;;;;;;;;;10563306;27;20080;-77
2023/03/23 20:36:59;;;;;;;6.80;2.87;;;;;;;;;;10542926;28;20113;-77
2023/03/23 20:42:05;;;;;;;4.00;1.50;;;;;;;;;;10567699;27;20036;-77
2023/03/23 20:47:11;;;;;;;5.50;2.55;;;;;;;;;;10550043;28;20070;-77
2023/03/23 20:52:14;;;;;;;8.55;3.28;;;;;;;;;;10540665;28;20051;-78
2023/03/23 20:57:19;;;;;;;4.97;2.30;;;;;;;;;;10527245;28;20036;-77
2023/03/23 21:02:24;;;;;;;5.00;2.83;;;;;;;;;;10561114;27;20415;-78
2023/03/23 21:07:29;;;;;;;3.33;1.83;;;;;;;;;;10532023;28;20035;-76
2023/03/23 21:12:36;;;;;;;6.80;3.10;;;;;;;;;;10565579;28;20063;-76
2023/03/23 21:17:40;;;;;;;8.90;3.20;;;;;;;;;;10562916;28;20036;-77
2023/03/23 21:22:53;;;;;;;;;;;;;;;;;;10549483;28;20044;-76
2023/03/23 21:27:57;;;;;;;6.13;3.30;;;;;;;;;;10557409;28;19931;-77
2023/03/23 21:33:07;;;;;;;10.43;3.13;;;;;;;;;;10552762;28;20040;-77
2023/03/23 21:38:13;;;;;;;7.82;2.85;;;;;;;;;;10556378;28;20493;-77
2023/03/23 21:43:19;;;;;;;8.57;3.17;;;;;;;;;;10559229;28;20039;-77
2023/03/23 21:48:23;;;;;;;8.27;2.92;;;;;;;;;;10558693;28;20396;-76
2023/03/23 21:53:26;;;;;;;;;;;;;;;;;;10564613;28;20047;-76
2023/03/23 21:58:31;;;;;;;6.88;2.65;;;;;;;;;;10554244;28;19927;-77
2023/03/23 22:03:35;;;;;;;5.82;2.67;;;;;;;;;;10559677;28;20044;-76
2023/03/23 22:08:38;;;;;;;8.50;3.17;;;;;;;;;;10558046;28;20393;-77
2023/03/23 22:13:43;;;;;;;6.85;2.97;;;;;;;;;;10551646;28;20459;-77
2023/03/23 22:18:47;;;;;;;6.40;3.15;;;;;;;;;;10554276;28;20110;-78
2023/03/23 22:23:53;;;;;;;6.13;2.63;;;;;;;;;;10537929;28;20045;-78
2023/03/23 22:28:59;;;;;;;4.43;1.90;;;;;;;;;;10545058;28;20322;-78
2023/03/23 22:34:03;;;;;;;5.78;3.00;;;;;;;;;;10550397;28;20044;-77
2023/03/23 22:39:11;;;;;;;5.10;2.65;;;;;;;;;;10520299;28;20127;-77
2023/03/23 22:44:18;;;;;;;6.88;3.15;;;;;;;;;;10533787;28;20105;-76
2023/03/23 22:49:21;;;;;;;5.38;2.70;;;;;;;;;;10559522;28;20370;-78
2023/03/23 22:54:34;;;;;;;3.33;2.17;;;;;;;;;;10554238;27;20040;-78
2023/03/23 22:59:38;;;;;;;5.60;2.30;;;;;;;;;;10536663;27;20123;-78
2023/03/23 23:04:41;;;;;;;5.60;1.95;;;;;;;;;;10563750;27;20484;-79
2023/03/23 23:09:45;;;;;;;3.17;2.17;;;;;;;;;;10538311;27;20048;-80
2023/03/23 23:14:51;;;;;;;4.95;2.45;;;;;;;;;;10563383;27;20040;-80
2023/03/23 23:19:56;;;;;;;5.03;2.70;;;;;;;;;;10563364;27;21317;-78
2023/03/23 23:24:59;;;;;;;5.57;2.60;;;;;;;;;;10551647;27;20035;-78
2023/03/23 23:30:04;;;;;;;;;;;;;;;;;;10547389;27;20031;-77
2023/03/23 23:35:10;;;;;;;3.33;1.67;;;;;;;;;;10556760;27;19926;-78
2023/03/23 23:40:15;;;;;;;4.47;2.38;;;;;;;;;;10562334;27;20539;-76
2023/03/23 23:45:18;;;;;;;5.68;2.50;;;;;;;;;;10566819;27;20039;-76
2023/03/23 23:50:23;;;;;;;2.53;1.65;;;;;;;;;;10545335;27;20485;-77
2023/03/23 23:55:29;;;;;;;4.05;2.15;;;;;;;;;;10565308;27;20040;-77
